createdAt,value
2023-04-25T00:00:16.668Z,73.85
2023-04-25T00:02:43.771Z,74.18
2023-04-25T00:05:11.440Z,76.39
2023-04-25T00:07:38.273Z,77.70
2023-04-25T00:10:06.083Z,75.09
2023-04-25T00:12:34.584Z,76.28
2023-04-25T00:15:01.519Z,76.75
2023-04-25T00:17:28.477Z,75.98
2023-04-25T00:19:55.650Z,76.19
2023-04-25T00:22:22.726Z,76.86
2023-04-25T00:24:50.034Z,75.56
2023-04-25T00:27:16.842Z,75.88
2023-04-25T00:29:43.669Z,75.36
2023-04-25T00:32:11.002Z,74.97
2023-04-25T00:34:37.791Z,75.17
2023-04-25T00:37:04.673Z,74.57
2023-04-25T00:39:31.678Z,74.72
2023-04-25T00:41:59.218Z,75.90
2023-04-25T00:44:27.921Z,76.09
2023-04-25T00:46:55.530Z,75.76
2023-04-25T00:49:22.684Z,74.70
2023-04-25T00:51:49.776Z,76.51
2023-04-25T00:54:17.491Z,76.12
2023-04-25T00:56:48.175Z,75.26
2023-04-25T00:59:17.000Z,74.81
2023-04-25T01:01:45.319Z,74.99
2023-04-25T01:04:12.637Z,76.92
2023-04-25T01:06:40.022Z,75.58
2023-04-25T01:09:07.135Z,76.37
2023-04-25T01:11:33.949Z,76.48
2023-04-25T01:14:01.692Z,78.32
2023-04-25T01:16:29.014Z,76.87
2023-04-25T01:18:57.164Z,77.31
2023-04-25T01:21:24.420Z,76.96
2023-04-25T01:23:51.727Z,77.72
2023-04-25T01:26:18.851Z,76.39
2023-04-25T01:28:46.401Z,75.29
2023-04-25T01:31:14.349Z,75.46
2023-04-25T01:33:41.435Z,76.08
2023-04-25T01:36:08.605Z,75.32
2023-04-25T01:38:36.619Z,74.96
2023-04-25T01:41:04.184Z,76.43
2023-04-25T01:43:31.106Z,78.75
2023-04-25T01:45:58.590Z,77.28
2023-04-25T01:48:26.092Z,78.08
2023-04-25T01:50:53.412Z,76.78
2023-04-25T01:53:20.293Z,76.09
2023-04-25T01:55:49.751Z,79.12
2023-04-25T01:58:20.981Z,78.00
2023-04-25T02:01:06.501Z,76.27
2023-04-25T02:03:53.592Z,75.45
2023-04-25T02:06:29.346Z,76.21
2023-04-25T02:08:58.079Z,77.36
2023-04-25T02:11:24.952Z,75.69
2023-04-25T02:14:14.608Z,76.93
2023-04-25T02:16:54.025Z,79.12
2023-04-25T02:19:20.830Z,77.42
2023-04-25T02:21:47.807Z,76.62
2023-04-25T02:24:14.746Z,76.83
2023-04-25T02:26:41.527Z,76.38
2023-04-25T02:29:10.546Z,76.64
2023-04-25T02:31:37.509Z,78.34
2023-04-25T02:34:04.333Z,79.92
2023-04-25T02:36:33.304Z,78.55
2023-04-25T02:39:00.138Z,77.11
2023-04-25T02:41:27.798Z,78.05
2023-04-25T02:43:56.268Z,77.56
2023-04-25T02:46:32.200Z,77.82
2023-04-25T02:49:05.179Z,77.21
2023-04-25T02:51:32.196Z,77.11
2023-04-25T02:53:59.366Z,76.00
2023-04-25T02:56:27.393Z,77.64
2023-04-25T02:58:54.781Z,75.69
2023-04-25T03:01:22.137Z,76.33
2023-04-25T03:03:49.532Z,75.34
2023-04-25T03:06:17.291Z,75.99
2023-04-25T03:08:44.525Z,77.24
2023-04-25T03:11:11.909Z,75.94
2023-04-25T03:13:38.946Z,75.39
2023-04-25T03:16:06.750Z,75.21
2023-04-25T03:18:33.706Z,75.46
2023-04-25T03:21:00.851Z,75.79
2023-04-25T03:23:27.880Z,75.83
2023-04-25T03:25:55.475Z,75.42
2023-04-25T03:28:23.522Z,75.26
2023-04-25T03:30:51.485Z,74.88
2023-04-25T03:33:18.370Z,74.86
2023-04-25T03:35:45.435Z,75.38
2023-04-25T03:38:12.934Z,75.24
2023-04-25T03:40:41.231Z,75.23
2023-04-25T03:43:13.899Z,75.12
2023-04-25T03:45:48.114Z,75.22
2023-04-25T03:48:20.630Z,74.79
2023-04-25T03:50:48.533Z,74.91
2023-04-25T03:53:15.434Z,75.61
2023-04-25T03:56:10.581Z,75.58
2023-04-25T03:58:38.885Z,77.05
2023-04-25T04:01:09.027Z,76.51
2023-04-25T04:03:38.991Z,75.58
2023-04-25T04:06:08.056Z,75.09
2023-04-25T04:08:39.372Z,76.33
2023-04-25T04:11:06.426Z,75.36
2023-04-25T04:13:34.129Z,74.82
2023-04-25T04:16:02.817Z,76.45
2023-04-25T04:18:29.865Z,75.26
2023-04-25T04:20:59.325Z,76.44
2023-04-25T04:23:29.289Z,77.06
2023-04-25T04:25:58.283Z,76.08
2023-04-25T04:28:46.992Z,75.03
2023-04-25T04:31:31.316Z,74.93
2023-04-25T04:33:59.649Z,74.86
2023-04-25T04:36:27.569Z,74.99
2023-04-25T04:38:55.145Z,77.32
2023-04-25T04:41:33.459Z,76.63
2023-04-25T04:44:23.879Z,75.93
2023-04-25T04:47:08.994Z,75.63
2023-04-25T04:50:01.574Z,73.20
2023-04-25T04:52:49.934Z,72.21
2023-04-25T04:55:39.087Z,70.73
2023-04-25T04:58:13.087Z,66.79
2023-04-25T05:00:51.520Z,65.27
2023-04-25T05:03:41.628Z,65.68
2023-04-25T05:06:24.289Z,68.11
2023-04-25T05:09:16.243Z,65.81
2023-04-25T05:12:18.249Z,67.67
2023-04-25T05:15:03.586Z,66.58
2023-04-25T05:17:30.708Z,67.55
2023-04-25T05:20:10.495Z,67.21
2023-04-25T05:22:56.304Z,70.62
2023-04-25T05:25:37.361Z,67.80
2023-04-25T05:28:14.534Z,68.72
2023-04-25T05:30:59.196Z,66.00
2023-04-25T05:33:31.837Z,64.12
2023-04-25T05:36:00.023Z,64.63
2023-04-25T05:38:27.518Z,63.11
2023-04-25T05:41:29.069Z,60.65
2023-04-25T05:44:00.748Z,60.58
2023-04-25T05:46:42.426Z,61.80
2023-04-25T05:49:26.462Z,59.95
2023-04-25T05:52:01.572Z,59.00
2023-04-25T05:54:45.864Z,58.83
2023-04-25T05:57:26.630Z,58.83
2023-04-25T05:59:55.840Z,56.34
2023-04-25T06:02:28.541Z,56.91
2023-04-25T06:04:58.722Z,55.47
2023-04-25T06:07:26.200Z,59.89
2023-04-25T06:09:53.065Z,59.42
2023-04-25T06:12:20.252Z,60.09
2023-04-25T06:14:49.903Z,57.00
2023-04-25T06:17:16.731Z,55.86
2023-04-25T06:19:43.689Z,58.03
2023-04-25T06:22:11.296Z,58.40
2023-04-25T06:24:40.830Z,58.32
2023-04-25T06:27:08.147Z,56.16
2023-04-25T06:29:35.265Z,57.40
2023-04-25T06:32:07.862Z,57.18
2023-04-25T06:34:40.143Z,58.77
2023-04-25T06:37:14.919Z,56.65
2023-04-25T06:39:51.537Z,55.74
2023-04-25T06:42:18.833Z,56.20
2023-04-25T06:44:52.512Z,54.49
2023-04-25T06:47:20.760Z,54.70
2023-04-25T06:49:49.046Z,55.72
2023-04-25T06:52:15.940Z,55.75
2023-04-25T06:54:42.848Z,57.66
2023-04-25T06:57:27.901Z,53.83
2023-04-25T06:59:57.358Z,53.85
2023-04-25T07:02:24.592Z,55.98
2023-04-25T07:04:55.390Z,55.08
2023-04-25T07:07:22.673Z,55.46
2023-04-25T07:09:55.977Z,52.99
2023-04-25T07:12:23.100Z,53.07
2023-04-25T07:14:50.046Z,54.33
2023-04-25T07:17:17.007Z,54.49
2023-04-25T07:19:44.666Z,52.28
2023-04-25T07:22:11.807Z,54.20
2023-04-25T07:24:41.365Z,55.62
2023-04-25T07:27:10.529Z,53.16
2023-04-25T07:29:48.984Z,53.41
2023-04-25T07:32:16.273Z,52.74
2023-04-25T07:34:46.628Z,55.44
2023-04-25T07:37:16.159Z,52.56
2023-04-25T07:39:58.342Z,53.10
2023-04-25T07:42:25.349Z,50.23
2023-04-25T07:44:52.869Z,47.94
2023-04-25T07:47:22.576Z,50.57
2023-04-25T07:49:49.580Z,50.92
2023-04-25T07:52:17.649Z,51.43
2023-04-25T07:54:50.277Z,51.80
2023-04-25T07:57:22.712Z,49.44
2023-04-25T07:59:50.718Z,50.86
2023-04-25T08:02:20.556Z,51.42
2023-04-25T08:04:47.846Z,50.21
2023-04-25T08:07:17.625Z,49.67
2023-04-25T08:09:55.514Z,50.61
2023-04-25T08:12:29.432Z,51.68
2023-04-25T08:14:59.629Z,51.71
2023-04-25T08:17:31.745Z,53.96
2023-04-25T08:19:59.231Z,51.49
2023-04-25T08:22:31.858Z,49.78
2023-04-25T08:25:16.009Z,47.40
2023-04-25T08:27:43.969Z,48.89
2023-04-25T08:30:11.720Z,48.96
2023-04-25T08:32:40.354Z,48.30
2023-04-25T08:35:21.666Z,48.89
2023-04-25T08:37:52.031Z,49.26
2023-04-25T08:40:27.225Z,46.41
2023-04-25T08:43:19.052Z,48.66
2023-04-25T08:45:46.932Z,47.65
2023-04-25T08:48:28.850Z,47.36
2023-04-25T08:50:58.026Z,46.52
2023-04-25T08:53:33.897Z,46.01
2023-04-25T08:56:10.448Z,46.10
2023-04-25T08:58:39.681Z,47.60
2023-04-25T09:01:07.328Z,45.60
2023-04-25T09:03:42.349Z,46.20
2023-04-25T09:06:12.077Z,46.29
2023-04-25T09:08:41.855Z,46.20
2023-04-25T09:11:11.464Z,45.77
2023-04-25T09:13:38.685Z,48.41
2023-04-25T09:16:16.150Z,48.04
2023-04-25T09:19:07.244Z,48.40
2023-04-25T09:21:37.776Z,48.45
2023-04-25T09:24:07.633Z,47.57
2023-04-25T09:26:35.581Z,46.74
2023-04-25T09:29:10.710Z,48.73
2023-04-25T09:31:41.395Z,45.83
2023-04-25T09:34:16.650Z,46.62
2023-04-25T09:36:48.019Z,46.31
2023-04-25T09:39:39.356Z,45.13
2023-04-25T09:42:13.280Z,43.84
2023-04-25T09:44:47.028Z,44.52
2023-04-25T09:47:18.989Z,47.19
2023-04-25T09:49:49.246Z,45.47
2023-04-25T09:52:19.313Z,48.27
2023-04-25T09:54:56.346Z,48.85
2023-04-25T09:57:31.419Z,48.00
2023-04-25T10:00:02.206Z,46.32
2023-04-25T10:02:44.209Z,46.72
2023-04-25T10:05:18.888Z,47.81
2023-04-25T10:07:46.086Z,47.39
2023-04-25T10:10:17.649Z,47.77
2023-04-25T10:12:45.739Z,47.57
2023-04-25T10:15:14.620Z,47.89
2023-04-25T10:17:41.796Z,50.03
2023-04-25T10:20:12.062Z,48.04
2023-04-25T10:22:42.783Z,48.19
2023-04-25T10:25:10.612Z,48.86
2023-04-25T10:27:38.262Z,49.49
2023-04-25T10:30:12.161Z,48.48
2023-04-25T10:32:39.205Z,47.84
2023-04-25T10:35:14.356Z,46.80
2023-04-25T10:38:03.948Z,48.10
2023-04-25T10:40:31.434Z,48.34
2023-04-25T10:43:34.599Z,47.67
2023-04-25T10:46:01.801Z,48.10
2023-04-25T10:48:32.958Z,48.09
2023-04-25T10:51:10.487Z,50.66
2023-04-25T10:53:37.976Z,46.78
2023-04-25T10:57:07.118Z,46.95
2023-04-25T10:59:34.412Z,47.92
2023-04-25T11:02:13.399Z,47.20
2023-04-25T11:04:42.647Z,50.46
2023-04-25T11:07:38.848Z,48.85
2023-04-25T11:10:07.626Z,49.08
2023-04-25T11:12:34.767Z,49.28
2023-04-25T11:15:08.620Z,48.61
2023-04-25T11:17:36.398Z,48.57
2023-04-25T11:20:08.400Z,50.58
2023-04-25T11:22:35.923Z,50.96
2023-04-25T11:25:07.574Z,51.68
2023-04-25T11:27:50.655Z,50.99
2023-04-25T11:30:18.119Z,52.19
2023-04-25T11:32:45.065Z,49.95
2023-04-25T11:35:12.465Z,50.87
2023-04-25T11:37:43.627Z,49.66
2023-04-25T11:40:12.651Z,50.08
2023-04-25T11:42:44.316Z,50.04
2023-04-25T11:45:12.045Z,49.43
2023-04-25T11:47:38.971Z,49.36
2023-04-25T11:50:08.716Z,48.92
2023-04-25T11:52:46.162Z,46.62
2023-04-25T11:55:21.650Z,46.18
2023-04-25T11:57:51.269Z,46.14
2023-04-25T12:00:21.130Z,45.74
2023-04-25T12:02:52.926Z,47.12
2023-04-25T12:07:53.585Z,46.36
2023-04-25T12:10:20.839Z,46.60
2023-04-25T12:12:49.527Z,46.13
2023-04-25T12:15:25.605Z,47.13
2023-04-25T12:17:55.066Z,45.50
2023-04-25T12:20:26.149Z,44.96
2023-04-25T12:22:53.999Z,45.34
2023-04-25T12:25:44.497Z,43.84
2023-04-25T12:28:17.094Z,44.05
2023-04-25T12:30:58.769Z,42.60
2023-04-25T12:33:27.940Z,44.51
2023-04-25T12:35:55.882Z,43.37
2023-04-25T12:38:35.020Z,43.80
2023-04-25T12:41:02.145Z,44.53
2023-04-25T12:43:29.114Z,43.61
2023-04-25T12:45:56.989Z,42.43
2023-04-25T12:48:24.441Z,43.01
2023-04-25T12:51:16.926Z,43.15
2023-04-25T12:53:43.725Z,41.34
2023-04-25T12:56:10.676Z,41.71
2023-04-25T12:58:37.712Z,43.10
2023-04-25T13:01:04.894Z,44.82
2023-04-25T13:03:31.997Z,41.61
2023-04-25T13:05:58.965Z,40.89
2023-04-25T13:08:26.076Z,42.14
2023-04-25T13:10:56.225Z,40.36
2023-04-25T13:13:23.629Z,40.68
2023-04-25T13:15:50.748Z,42.18
2023-04-25T13:18:17.771Z,41.60
2023-04-25T13:20:44.654Z,39.83
2023-04-25T13:23:11.558Z,40.53
2023-04-25T13:25:38.418Z,39.51
2023-04-25T13:28:05.793Z,40.38
2023-04-25T13:30:32.610Z,39.73
2023-04-25T13:33:04.410Z,40.08
2023-04-25T13:35:32.220Z,41.79
2023-04-25T13:37:58.995Z,41.70
2023-04-25T13:40:26.144Z,41.14
2023-04-25T13:43:42.650Z,38.81
2023-04-25T13:46:20.639Z,38.61
2023-04-25T13:49:03.026Z,39.64
2023-04-25T13:51:37.059Z,42.54
2023-04-25T13:54:04.164Z,41.65
2023-04-25T13:56:31.456Z,40.84
2023-04-25T13:58:58.562Z,42.96
2023-04-25T14:01:25.432Z,41.71
2023-04-25T14:03:52.465Z,42.32
2023-04-25T14:06:23.812Z,43.69
2023-04-25T14:08:51.758Z,41.95
2023-04-25T14:11:19.412Z,42.84
2023-04-25T14:13:46.992Z,43.13
2023-04-25T14:16:13.873Z,42.80
2023-04-25T14:18:41.001Z,42.39
2023-04-25T14:21:08.073Z,42.50
2023-04-25T14:23:34.768Z,42.07
2023-04-25T14:26:01.712Z,41.78
2023-04-25T14:28:28.461Z,43.13
2023-04-25T14:30:55.354Z,42.55
2023-04-25T14:33:22.351Z,41.78
2023-04-25T14:35:49.251Z,42.38
2023-04-25T14:38:16.212Z,43.20
2023-04-25T14:40:43.833Z,42.11
2023-04-25T14:43:10.646Z,41.21
2023-04-25T14:45:37.389Z,41.01
2023-04-25T14:48:04.543Z,41.37
2023-04-25T14:50:31.840Z,42.77
2023-04-25T14:53:02.170Z,41.18
2023-04-25T14:55:29.344Z,40.81
2023-04-25T14:57:57.565Z,41.09
2023-04-25T15:00:26.378Z,41.25
2023-04-25T15:03:04.391Z,42.43
2023-04-25T15:05:31.846Z,41.79
2023-04-25T15:07:59.454Z,41.93
2023-04-25T15:10:26.539Z,40.16
2023-04-25T15:12:54.646Z,40.23
2023-04-25T15:15:26.620Z,41.29
2023-04-25T15:17:59.115Z,41.33
2023-04-25T15:20:26.900Z,43.20
2023-04-25T15:22:53.853Z,41.18
2023-04-25T15:25:20.576Z,40.53
2023-04-25T15:27:49.492Z,40.94
2023-04-25T15:30:17.800Z,42.05
2023-04-25T15:32:46.081Z,41.93
2023-04-25T15:35:13.338Z,41.98
2023-04-25T15:37:41.519Z,42.25
2023-04-25T15:40:15.050Z,42.29
2023-04-25T15:42:44.438Z,41.07
2023-04-25T15:45:12.288Z,41.39
2023-04-25T15:47:39.267Z,40.80
2023-04-25T15:50:08.634Z,40.43
2023-04-25T15:52:36.793Z,40.53
2023-04-25T15:55:08.901Z,41.40
2023-04-25T15:57:51.544Z,40.45
2023-04-25T16:00:50.302Z,40.25
2023-04-25T16:03:17.258Z,41.21
2023-04-25T16:05:44.156Z,41.87
2023-04-25T16:08:10.886Z,40.77
2023-04-25T16:10:38.509Z,40.31
2023-04-25T16:13:06.489Z,40.66
2023-04-25T16:15:35.321Z,41.17
2023-04-25T16:18:03.189Z,44.54
2023-04-25T16:20:31.404Z,41.40
2023-04-25T16:22:58.802Z,40.66
2023-04-25T16:25:25.542Z,41.40
2023-04-25T16:27:52.596Z,41.39
2023-04-25T16:30:19.467Z,42.26
2023-04-25T16:32:46.241Z,40.81
2023-04-25T16:35:12.943Z,41.73
2023-04-25T16:37:39.717Z,42.60
2023-04-25T16:40:10.088Z,41.80
2023-04-25T16:42:37.067Z,42.05
2023-04-25T16:45:05.283Z,41.84
2023-04-25T16:47:32.805Z,41.41
2023-04-25T16:50:01.638Z,42.63
2023-04-25T16:52:28.490Z,41.52
2023-04-25T16:54:55.258Z,40.33
2023-04-25T16:57:22.107Z,41.78
2023-04-25T16:59:48.760Z,42.29
2023-04-25T17:02:16.053Z,40.01
2023-04-25T17:04:42.947Z,40.34
2023-04-25T17:07:09.753Z,39.89
2023-04-25T17:09:36.808Z,40.08
2023-04-25T17:12:04.476Z,41.07
2023-04-25T17:14:33.217Z,41.93
2023-04-25T17:17:00.309Z,44.45
2023-04-25T17:19:28.270Z,43.63
2023-04-25T17:21:55.953Z,42.34
2023-04-25T17:24:22.678Z,43.48
2023-04-25T17:26:49.496Z,42.02
2023-04-25T17:29:16.346Z,45.70
2023-04-25T17:31:44.322Z,41.82
2023-04-25T17:34:12.303Z,42.79
2023-04-25T17:36:39.018Z,43.29
2023-04-25T17:39:07.454Z,43.45
2023-04-25T17:41:34.278Z,46.00
2023-04-25T17:44:01.411Z,44.95
2023-04-25T17:46:29.578Z,47.47
2023-04-25T17:48:59.346Z,46.58
2023-04-25T17:51:26.695Z,45.57
2023-04-25T17:53:53.465Z,48.52
2023-04-25T17:56:26.962Z,46.61
2023-04-25T17:58:54.525Z,46.97
2023-04-25T18:01:21.766Z,48.59
2023-04-25T18:03:50.316Z,47.49
2023-04-25T18:06:18.141Z,48.72
2023-04-25T18:08:45.418Z,50.02
2023-04-25T18:11:12.424Z,48.17
2023-04-25T18:13:39.831Z,49.57
2023-04-25T18:16:07.643Z,51.35
2023-04-25T18:18:36.358Z,51.24
2023-04-25T18:21:05.759Z,51.43
2023-04-25T18:23:34.297Z,51.44
2023-04-25T18:26:02.895Z,52.48
2023-04-25T18:28:29.796Z,46.28
2023-04-25T18:30:57.133Z,44.83
2023-04-25T18:33:24.068Z,47.35
2023-04-25T18:35:58.205Z,45.73
2023-04-25T18:42:56.038Z,45.68
2023-04-25T18:45:22.816Z,47.16
2023-04-25T18:47:49.651Z,44.82
2023-04-25T18:50:20.290Z,47.44
2023-04-25T18:52:47.101Z,46.24
2023-04-25T18:55:15.013Z,45.96
2023-04-25T18:57:42.218Z,48.09
2023-04-25T19:00:09.573Z,48.81
2023-04-25T19:02:39.425Z,49.83
2023-04-25T19:05:06.990Z,52.33
2023-04-25T19:07:33.875Z,54.35
2023-04-25T19:10:00.681Z,56.10
2023-04-25T19:12:27.383Z,56.91
2023-04-25T19:14:54.162Z,58.51
2023-04-25T19:17:20.915Z,59.25
2023-04-25T19:19:47.837Z,57.56
2023-04-25T19:22:14.789Z,59.20
2023-04-25T19:24:41.591Z,57.74
2023-04-25T19:27:08.610Z,57.90
2023-04-25T19:29:36.482Z,58.42
2023-04-25T19:32:03.559Z,58.14
2023-04-25T19:34:30.466Z,57.76
2023-04-25T19:36:57.618Z,59.19
2023-04-25T19:39:24.364Z,59.00
2023-04-25T19:41:51.249Z,59.28
2023-04-25T19:44:18.039Z,59.71
2023-04-25T19:46:46.889Z,59.46
2023-04-25T19:49:13.850Z,59.45
2023-04-25T19:51:42.133Z,61.24
2023-04-25T19:54:08.946Z,62.80
2023-04-25T19:56:35.860Z,61.71
2023-04-25T19:59:02.947Z,62.04
2023-04-25T20:01:30.472Z,62.83
2023-04-25T20:03:57.449Z,61.50
2023-04-25T20:06:24.314Z,60.61
2023-04-25T20:08:53.447Z,59.41
2023-04-25T20:11:20.338Z,58.83
2023-04-25T20:13:47.512Z,60.09
2023-04-25T20:16:19.892Z,59.39
2023-04-25T20:18:50.543Z,59.25
2023-04-25T20:21:17.715Z,61.37
2023-04-25T20:23:44.859Z,61.26
2023-04-25T20:26:15.087Z,60.85
2023-04-25T20:28:42.000Z,62.18
2023-04-25T20:31:10.799Z,61.13
2023-04-25T20:33:38.828Z,61.80
2023-04-25T20:36:05.847Z,62.33
2023-04-25T20:38:32.729Z,63.29
2023-04-25T20:40:59.665Z,61.88
2023-04-25T20:43:27.057Z,61.38
2023-04-25T20:45:55.127Z,60.79
2023-04-25T20:48:24.352Z,62.35
2023-04-25T20:50:51.551Z,63.19
2023-04-25T20:53:18.509Z,62.43
2023-04-25T20:55:46.561Z,62.92
2023-04-25T20:58:13.289Z,61.86
2023-04-25T21:00:40.003Z,62.84
2023-04-25T21:03:07.871Z,64.15
2023-04-25T21:05:34.958Z,63.26
2023-04-25T21:08:01.740Z,62.91
2023-04-25T21:10:28.626Z,62.30
2023-04-25T21:12:56.665Z,62.01
2023-04-25T21:15:24.676Z,62.62
2023-04-25T21:17:52.941Z,60.31
2023-04-25T21:20:22.069Z,60.39
2023-04-25T21:22:53.454Z,60.28
2023-04-25T21:25:25.571Z,61.05
2023-04-25T21:27:53.445Z,62.14
2023-04-25T21:30:23.733Z,62.65
2023-04-25T21:32:52.040Z,63.77
2023-04-25T21:35:20.515Z,61.20
2023-04-25T21:37:47.419Z,61.74
2023-04-25T21:40:14.727Z,62.42
2023-04-25T21:42:42.566Z,62.59
2023-04-25T21:45:10.239Z,62.44
2023-04-25T21:47:37.341Z,62.71
2023-04-25T21:50:04.736Z,63.01
2023-04-25T21:52:32.211Z,62.69
2023-04-25T21:54:59.094Z,63.37
2023-04-25T21:57:26.541Z,63.47
2023-04-25T21:59:53.614Z,63.05
2023-04-25T22:02:20.513Z,61.92
2023-04-25T22:04:47.834Z,62.18
2023-04-25T22:07:15.292Z,63.60
2023-04-25T22:09:53.886Z,62.87
2023-04-25T22:12:22.727Z,63.42
2023-04-25T22:14:50.256Z,64.05
2023-04-25T22:17:17.804Z,64.36
2023-04-25T22:19:45.370Z,63.68
2023-04-25T22:22:12.336Z,63.53
2023-04-25T22:24:39.357Z,63.13
2023-04-25T22:27:06.802Z,62.54
2023-04-25T22:29:34.348Z,63.64
2023-04-25T22:32:01.780Z,64.69
2023-04-25T22:34:28.956Z,65.70
2023-04-25T22:36:55.721Z,66.04
2023-04-25T22:39:23.239Z,65.12
2023-04-25T22:41:49.904Z,65.18
2023-04-25T22:44:16.601Z,66.96
2023-04-25T22:46:43.506Z,66.40
2023-04-25T22:49:10.597Z,66.36
2023-04-25T22:51:37.844Z,65.55
2023-04-25T22:54:05.521Z,65.43
2023-04-25T22:56:32.855Z,65.12
2023-04-25T22:58:59.667Z,64.39
2023-04-25T23:01:28.094Z,64.42
2023-04-25T23:03:55.243Z,64.29
2023-04-25T23:06:22.959Z,64.46
2023-04-25T23:08:50.420Z,64.53
2023-04-25T23:11:17.191Z,64.77
2023-04-25T23:13:44.034Z,64.69
2023-04-25T23:16:11.155Z,64.07
2023-04-25T23:18:39.564Z,63.12
2023-04-25T23:21:11.411Z,63.22
2023-04-25T23:23:38.807Z,62.05
2023-04-25T23:26:09.379Z,62.63
2023-04-25T23:28:39.854Z,63.33
2023-04-25T23:31:09.934Z,63.54
2023-04-25T23:33:36.760Z,63.77
2023-04-25T23:36:03.853Z,64.33
2023-04-25T23:38:31.001Z,63.98
2023-04-25T23:40:57.920Z,64.30
2023-04-25T23:43:24.771Z,64.90
2023-04-25T23:45:51.567Z,65.31
2023-04-25T23:48:18.257Z,65.22
2023-04-25T23:50:44.912Z,65.43
2023-04-25T23:53:11.855Z,65.62
2023-04-25T23:55:38.600Z,67.26
2023-04-25T23:58:05.392Z,67.48
